Time;durP1;ratioP1;P1;durP2;ratioP2;P2;SDS_P1;SDS_P2;PMS_P1;PMS_P2;Temp;Humidity;BMP_temperature;BMP_pressure;BME280_temperature;BME280_humidity;BME280_pressure;Samples;Min_cycle;Max_cycle;Signal;HPM_P1;HPM_P2
2022/06/13 15:12:43;;;;;;;6.07;5.20;;;45.40;18.60;;;33.97;19.41;95877.94;5130537;27;20349;-57
2022/06/13 15:15:25;;;;;;;7.28;6.60;;;45.50;17.30;;;33.92;20.79;95870.09;5094146;28;20028;-58
2022/06/13 15:18:01;;;;;;;6.68;6.07;;;46.40;16.50;;;34.06;20.00;95874.69;5085427;23;20132;-55
2022/06/13 15:20:33;;;;;;;6.40;5.80;;;47.20;15.90;;;33.74;20.70;95869.47;5033868;28;20042;-51
2022/06/13 15:23:28;;;;;;;7.18;6.57;;;47.90;15.30;;;33.98;20.13;95876.75;5051702;28;20045;-53
2022/06/13 15:25:57;;;;;;;6.32;5.75;;;48.70;15.10;;;34.16;20.30;95879.34;5069291;28;20036;-50
2022/06/13 15:28:24;;;;;;;7.07;6.10;;;49.30;14.70;;;34.48;19.50;95883.72;5054972;28;20036;-50
2022/06/13 15:31:14;;;;;;;7.25;6.70;;;50.20;14.80;;;34.63;19.56;95882.38;5066976;28;20043;-51
2022/06/13 15:33:43;;;;;;;9.07;8.32;;;51.20;14.00;;;34.41;19.96;95872.72;5048113;28;20028;-50
2022/06/13 15:36:20;;;;;;;9.40;8.50;;;52.00;13.50;;;34.74;19.81;95880.25;5054043;28;20532;-51
2022/06/13 15:38:46;;;;;;;10.77;10.07;;;52.60;13.30;;;35.10;19.56;95879.00;5064625;28;20036;-51
2022/06/13 15:41:34;;;;;;;9.98;9.27;;;53.00;13.00;;;34.98;19.65;95883.88;5066904;28;20059;-51
2022/06/13 15:44:01;;;;;;;9.57;8.93;;;53.30;12.80;;;35.45;19.05;95874.91;5067538;28;20033;-51
2022/06/13 15:46:32;;;;;;;10.60;9.75;;;53.60;12.70;;;35.31;18.57;95875.13;5066670;28;20031;-50
2022/06/13 15:49:04;;;;;;;11.05;10.18;;;53.80;12.40;;;34.81;18.86;95871.06;5049997;28;20503;-55
2022/06/13 15:51:37;;;;;;;11.50;10.55;;;53.90;12.20;;;35.17;19.18;95871.38;5053223;28;20025;-51
2022/06/13 15:54:20;;;;;;;8.93;8.30;;;53.80;12.20;;;35.48;18.79;95874.09;5039875;28;20025;-51
2022/06/13 15:57:05;;;;;;;9.90;9.00;;;53.80;12.20;;;35.49;18.31;95875.63;5066532;28;20033;-51
2022/06/13 16:00:00;;;;;;;9.60;8.90;;;53.70;12.10;;;35.31;19.10;95856.53;5060419;28;20036;-55
2022/06/13 16:02:38;;;;;;;10.07;9.30;;;53.70;12.00;;;34.97;19.53;95851.09;5065450;28;20057;-54
2022/06/13 16:05:26;;;;;;;8.55;7.78;;;53.60;12.00;;;34.09;20.45;95862.81;5049535;28;20186;-54
2022/06/13 16:08:03;;;;;;;8.98;8.27;;;53.50;12.00;;;34.27;20.00;95857.88;5068364;28;20025;-55
2022/06/13 16:10:33;;;;;;;8.00;7.50;;;53.30;12.00;;;34.14;20.49;95859.63;5047529;28;20074;-51
2022/06/13 16:13:03;;;;;;;9.65;9.00;;;53.10;11.90;;;33.99;19.95;95852.66;5067600;28;20110;-54
2022/06/13 16:15:34;;;;;;;9.05;8.18;;;52.90;11.70;;;34.07;19.91;95848.66;5071944;28;20029;-54
2022/06/13 16:18:15;;;;;;;7.60;7.03;;;52.80;11.80;;;34.06;19.79;95853.38;5056155;28;20162;-54
2022/06/13 16:20:45;;;;;;;7.20;6.53;;;52.70;11.80;;;33.68;20.50;95852.56;5047260;28;20044;-51
2022/06/13 16:23:17;;;;;;;6.38;5.90;;;52.60;11.80;;;33.84;20.61;95858.31;5022223;28;20797;-53
2022/06/13 16:25:46;;;;;;;7.95;7.38;;;52.50;11.90;;;34.26;19.54;95861.06;5042360;28;20037;-55
2022/06/13 16:28:24;;;;;;;7.93;7.25;;;52.50;11.80;;;34.21;18.93;95854.00;5053564;28;20039;-55
2022/06/13 16:30:59;;;;;;;7.28;6.60;;;52.60;11.80;;;34.13;19.55;95855.31;5035919;28;20036;-53
2022/06/13 16:33:40;;;;;;;7.82;7.22;;;52.60;11.60;;;33.96;19.73;95851.50;5037921;28;20063;-52
2022/06/13 16:36:34;;;;;;;7.53;7.00;;;52.60;11.60;;;33.98;19.20;95851.88;5036004;28;20055;-54
2022/06/13 16:39:02;;;;;;;8.32;7.53;;;52.70;11.50;;;34.12;19.37;95850.16;5033754;28;20037;-52
2022/06/13 16:41:37;;;;;;;8.30;7.60;;;52.70;11.50;;;34.31;18.79;95855.06;5040876;28;20032;-53
2022/06/13 16:44:13;;;;;;;7.43;6.93;;;52.80;11.40;;;34.05;19.00;95849.06;5035893;28;20040;-50
2022/06/13 16:46:50;;;;;;;7.78;7.18;;;52.90;11.40;;;33.55;19.31;95846.75;5051322;28;20128;-54
2022/06/13 16:49:50;;;;;;;7.88;6.85;;;53.00;11.30;;;33.22;19.65;95850.94;5035444;28;20052;-52
2022/06/13 16:52:21;;;;;;;7.28;6.68;;;52.90;11.20;;;33.28;18.95;95852.09;5051246;28;20033;-54
2022/06/13 16:55:11;;;;;;;6.70;6.25;;;52.80;11.00;;;33.66;19.00;95846.66;5050487;28;20084;-51
2022/06/13 16:57:40;;;;;;;7.05;6.55;;;52.90;11.10;;;33.72;19.11;95847.78;5034296;28;20032;-53
2022/06/13 17:00:23;;;;;;;6.55;6.05;;;53.10;11.00;;;34.00;18.90;95854.22;5051142;28;20029;-52
2022/06/13 17:03:14;;;;;;;6.75;6.07;;;53.40;11.10;;;33.85;19.00;95846.09;5054246;28;20107;-49
2022/06/13 17:05:51;;;;;;;8.25;7.65;;;53.50;11.50;;;33.91;18.82;95848.38;5042058;28;20040;-50
2022/06/13 17:08:27;;;;;;;6.30;5.90;;;53.70;10.90;;;33.96;19.00;95848.72;5037434;28;20033;-52
2022/06/13 17:10:52;;;;;;;4.45;3.88;;;53.70;10.80;;;33.20;19.21;95847.03;5044050;28;20138;-52
2022/06/13 17:13:33;;;;;;;4.10;2.97;;;53.10;10.50;;;32.21;19.97;95849.84;5051635;28;20064;-54
2022/06/13 17:16:11;;;;;;;2.83;2.35;;;50.30;10.90;;;31.26;21.15;95842.06;5050637;28;20442;-50
2022/06/13 17:18:56;;;;;;;3.33;2.40;;;46.60;12.20;;;30.53;22.22;95853.28;5020860;28;20033;-49
2022/06/13 17:21:31;;;;;;;7.05;2.85;;;43.50;13.40;;;29.77;23.19;95854.03;5073031;28;20043;-51
2022/06/13 17:24:01;;;;;;;4.20;2.50;;;40.90;14.70;;;28.87;23.76;95838.00;5054966;28;20032;-50
2022/06/13 17:32:09;;;;;;;2.45;1.95;;;35.50;17.20;;;27.41;25.04;95838.44;5072817;28;20137;-48
2022/06/13 17:34:41;;;;;;;2.83;1.85;;;34.10;18.00;;;26.92;26.08;95839.16;5071700;28;20046;-50
2022/06/13 17:37:08;;;;;;;2.17;1.85;;;33.10;18.90;;;26.53;27.02;95838.44;5072376;28;20043;-49
2022/06/13 17:39:36;;;;;;;3.75;1.88;;;32.20;19.50;;;26.10;27.93;95845.75;5060209;28;20053;-47
2022/06/13 17:42:08;;;;;;;4.32;2.25;;;31.60;20.40;;;25.76;28.80;95844.59;5048780;28;20399;-48
2022/06/13 17:44:38;;;;;;;4.85;1.60;;;30.90;21.20;;;25.28;30.16;95847.38;5035481;28;20041;-51
2022/06/13 17:47:08;;;;;;;3.45;1.52;;;30.30;21.90;;;25.10;29.66;95851.56;5034770;28;20068;-48
2022/06/13 17:49:38;;;;;;;3.42;1.85;;;29.90;22.50;;;24.86;29.89;95849.81;5035042;28;20078;-48
2022/06/13 17:52:05;;;;;;;3.42;1.45;;;29.40;22.90;;;24.73;30.60;95851.81;5034570;28;20031;-48
2022/06/13 17:54:31;;;;;;;4.22;1.52;;;29.00;23.30;;;24.50;31.77;95850.78;5034688;28;20116;-50
2022/06/13 17:57:06;;;;;;;3.78;1.63;;;28.70;23.90;;;24.24;32.17;95849.28;5033972;28;20111;-48
2022/06/13 17:59:34;;;;;;;4.30;1.95;;;28.40;24.50;;;24.09;32.50;95861.69;5034811;28;20033;-47
2022/06/13 18:02:02;;;;;;;3.17;1.52;;;28.10;24.70;;;23.94;32.01;95856.97;5034629;28;20032;-48
2022/06/13 18:04:28;;;;;;;3.33;1.48;;;27.80;25.00;;;23.84;32.35;95849.28;5034447;28;20028;-47
2022/06/13 18:06:58;;;;;;;2.30;2.10;;;27.70;25.20;;;23.74;32.51;95854.06;5033824;28;20084;-48
2022/06/13 18:09:31;;;;;;;2.00;1.58;;;27.50;25.50;;;23.55;32.52;95862.78;5034494;28;20029;-51
2022/06/13 18:11:57;;;;;;;5.13;1.67;;;27.30;25.70;;;23.49;33.36;95858.69;5033160;28;20124;-48
2022/06/13 18:14:23;;;;;;;3.33;1.60;;;27.10;25.80;;;23.39;33.56;95864.59;4999331;28;20565;-47
2022/06/13 18:16:50;;;;;;;3.92;1.40;;;27.00;26.10;;;23.26;33.62;95868.44;4999029;28;20046;-49
2022/06/13 18:19:19;;;;;;;4.03;1.60;;;26.80;26.20;;;23.15;34.26;95868.09;5010969;28;20030;-50
2022/06/13 18:21:47;;;;;;;2.80;1.75;;;26.70;26.50;;;23.06;34.84;95872.81;5011047;28;20033;-48
2022/06/13 18:24:16;;;;;;;2.63;2.33;;;26.60;26.80;;;22.96;35.74;95871.34;5010876;28;20108;-50
2022/06/13 18:26:44;;;;;;;4.10;1.80;;;26.40;27.10;;;22.81;36.41;95870.06;5006036;28;20069;-49
2022/06/13 18:29:15;;;;;;;5.22;1.33;;;26.30;27.30;;;22.56;38.34;95868.38;5026971;28;20437;-50
2022/06/13 18:31:44;;;;;;;3.22;1.80;;;26.20;28.00;;;22.42;39.15;95871.38;5029417;28;20033;-50
2022/06/13 18:34:14;;;;;;;3.42;1.95;;;26.00;28.50;;;22.24;39.21;95868.03;5030679;28;20620;-47
2022/06/13 18:36:43;;;;;;;5.70;2.17;;;25.80;28.70;;;22.10;39.26;95870.19;5029035;28;20061;-47
2022/06/13 18:39:09;;;;;;;5.35;2.15;;;25.70;29.10;;;21.95;39.12;95869.66;5024878;28;20033;-47
2022/06/13 18:41:37;;;;;;;3.33;1.70;;;25.50;29.20;;;21.80;41.78;95870.25;5009532;28;20026;-50
2022/06/13 18:44:04;;;;;;;3.60;1.38;;;25.40;29.90;;;21.42;42.17;95875.72;5025941;28;20116;-47
2022/06/13 18:46:41;;;;;;;7.75;1.60;;;25.20;30.20;;;21.00;44.04;95870.94;5017844;28;20702;-48
2022/06/13 18:49:11;;;;;;;3.50;1.15;;;25.00;31.20;;;20.79;45.11;95876.25;5009603;28;20038;-48
2022/06/13 18:51:38;;;;;;;2.30;1.33;;;24.80;31.70;;;20.46;45.18;95870.56;4967587;28;20026;-48
2022/06/13 18:54:04;;;;;;;4.20;1.35;;;24.50;32.10;;;20.19;46.54;95874.41;4995027;28;20052;-47
2022/06/13 18:56:33;;;;;;;3.17;1.77;;;24.20;32.60;;;20.01;47.68;95876.31;5028604;28;20033;-49
2022/06/13 18:59:06;;;;;;;5.03;1.65;;;24.00;33.50;;;19.86;48.12;95874.06;5028885;28;20029;-51
2022/06/13 19:01:36;;;;;;;2.80;1.35;;;23.70;34.30;;;19.61;47.87;95872.88;5012674;28;20026;-48
2022/06/13 19:04:11;;;;;;;3.17;1.63;;;23.50;34.60;;;19.34;49.04;95868.56;5028662;28;20061;-49
2022/06/13 19:06:41;;;;;;;3.33;1.58;;;23.20;35.10;;;19.10;49.76;95875.13;5028751;28;20037;-46
2022/06/13 19:09:09;;;;;;;11.77;1.70;;;23.00;35.60;;;18.81;50.41;95878.34;5028726;28;20436;-47
2022/06/13 19:11:43;;;;;;;6.63;1.50;;;22.70;36.20;;;18.65;51.32;95877.91;5012700;28;20029;-50
2022/06/13 19:14:18;;;;;;;4.22;1.77;;;22.50;37.20;;;18.40;54.05;95881.22;5030013;28;20108;-50
2022/06/13 19:16:49;;;;;;;4.15;1.48;;;22.30;38.40;;;18.25;50.99;95877.00;5027262;28;20042;-48
2022/06/13 19:19:19;;;;;;;3.85;1.60;;;22.00;38.00;;;18.19;51.97;95878.22;5025434;28;20096;-48
2022/06/13 19:21:45;;;;;;;5.55;1.30;;;21.90;38.40;;;18.10;51.17;95888.13;5025429;28;20014;-50
2022/06/13 19:24:11;;;;;;;3.67;1.40;;;21.70;38.50;;;18.01;51.12;95886.16;5022506;28;20447;-48
2022/06/13 19:26:38;;;;;;;4.20;1.60;;;21.60;38.70;;;17.94;54.04;95893.06;5029596;28;20084;-47
2022/06/13 19:29:13;;;;;;;3.80;1.52;;;21.40;39.30;;;17.77;51.75;95902.59;5028397;28;20038;-50
2022/06/13 19:31:42;;;;;;;4.43;1.50;;;21.30;39.60;;;17.72;53.60;95904.56;5028873;28;20026;-49
2022/06/13 19:34:18;;;;;;;1.85;1.13;;;21.20;40.00;;;17.64;50.81;95906.06;5028533;28;20033;-50
2022/06/13 19:36:47;;;;;;;2.25;1.70;;;21.10;40.10;;;17.65;50.41;95896.09;5028509;28;20053;-50
2022/06/13 19:39:19;;;;;;;4.32;1.45;;;21.00;39.80;;;17.65;49.45;95909.56;5027658;28;20033;-47
2022/06/13 19:41:48;;;;;;;2.97;1.50;;;20.90;40.00;;;17.65;49.98;95912.25;5045071;28;20029;-50
2022/06/13 19:44:17;;;;;;;2.80;1.42;;;20.90;40.00;;;17.62;49.45;95910.19;5045175;28;20065;-50
2022/06/13 19:46:43;;;;;;;5.43;1.50;;;20.90;40.00;;;17.65;49.86;95913.06;5033762;28;20041;-51
2022/06/13 19:49:09;;;;;;;6.55;1.30;;;20.80;40.00;;;17.63;49.56;95917.16;5025059;28;20034;-45
2022/06/13 19:51:42;;;;;;;3.03;1.15;;;20.80;40.00;;;17.58;50.34;95918.84;5021295;28;20473;-47
2022/06/13 19:54:11;;;;;;;3.80;1.38;;;20.80;40.30;;;17.48;50.79;95920.94;5012343;28;20044;-47
2022/06/13 19:56:40;;;;;;;2.25;1.15;;;20.80;40.40;;;17.41;51.23;95921.34;5028259;28;20489;-45
2022/06/13 19:59:12;;;;;;;3.80;1.40;;;20.70;40.60;;;17.33;51.53;95925.53;5032438;28;20036;-47
2022/06/13 20:01:44;;;;;;;7.53;1.88;;;20.70;40.80;;;17.21;52.98;95921.75;5033369;28;20492;-48
2022/06/13 20:04:13;;;;;;;2.63;1.60;;;20.60;41.20;;;17.07;52.47;95917.13;5015923;28;20077;-48
2022/06/13 20:09:23;;;;;;;2.53;1.60;;;20.40;41.50;;;16.90;53.15;95937.66;5032612;28;20036;-47
2022/06/13 20:11:56;;;;;;;6.32;1.60;;;20.30;41.60;;;16.74;52.79;95932.50;5033133;28;20033;-46
2022/06/13 20:14:22;;;;;;;1.85;1.40;;;20.20;42.00;;;16.66;52.49;95933.97;5032094;28;20048;-48
2022/06/13 20:16:56;;;;;;;3.38;1.45;;;20.10;41.80;;;16.62;53.23;95934.84;5030783;28;20065;-52
2022/06/13 20:19:46;;;;;;;2.72;1.65;;;20.10;42.10;;;16.56;53.78;95939.50;5031949;28;20098;-48
2022/06/13 20:22:15;;;;;;;3.55;1.50;;;20.00;42.30;;;16.48;54.08;95942.06;5033286;28;20037;-49
2022/06/13 20:24:41;;;;;;;2.20;1.30;;;19.90;42.50;;;16.40;54.10;95943.53;5032042;28;20048;-47
2022/06/13 20:27:07;;;;;;;3.42;1.95;;;19.80;42.70;;;16.34;54.53;95942.81;5032367;28;20083;-50
2022/06/13 20:29:33;;;;;;;2.50;1.35;;;19.70;43.00;;;16.27;54.21;95952.34;5048313;28;20041;-50
2022/06/13 20:32:09;;;;;;;2.58;1.60;;;19.70;43.10;;;16.15;55.37;95948.19;5032943;28;20029;-48
2022/06/13 20:34:44;;;;;;;5.65;1.60;;;19.60;43.40;;;16.07;54.77;95956.09;5041351;28;20108;-50
2022/06/13 20:37:27;;;;;;;4.38;1.50;;;19.50;43.60;;;16.01;55.30;95950.00;5048821;28;20087;-50
2022/06/13 20:39:57;;;;;;;2.58;1.40;;;19.50;44.00;;;15.92;54.85;95949.88;5048623;28;20021;-47
2022/06/13 20:42:35;;;;;;;2.67;1.50;;;19.40;43.90;;;15.93;54.52;95959.53;5048943;28;20056;-47
2022/06/13 20:45:04;;;;;;;3.10;1.30;;;19.30;44.00;;;15.92;54.38;95955.25;5048741;28;20083;-47
2022/06/13 20:47:34;;;;;;;4.88;1.67;;;19.30;44.00;;;15.90;54.80;95960.09;5048619;28;20449;-49
2022/06/13 20:50:06;;;;;;;7.45;1.63;;;19.30;44.10;;;15.88;54.55;95961.47;5048644;28;20025;-47
2022/06/13 20:52:32;;;;;;;5.03;1.40;;;19.20;44.20;;;15.84;53.71;95955.88;5048774;28;20056;-47
2022/06/13 20:54:58;;;;;;;3.50;1.50;;;19.20;44.10;;;15.84;54.18;95955.88;5048927;28;20029;-48
2022/06/13 20:57:24;;;;;;;3.40;1.67;;;19.20;44.10;;;15.83;54.22;95959.66;5048321;28;20120;-48
2022/06/13 20:59:50;;;;;;;1.88;1.20;;;19.20;44.30;;;15.81;54.60;95958.34;5033662;28;20124;-51
2022/06/13 21:02:21;;;;;;;4.00;1.50;;;19.10;44.30;;;15.79;53.79;95950.56;5033500;28;20029;-50
2022/06/13 21:04:50;;;;;;;5.95;1.45;;;19.10;44.30;;;15.80;53.49;95962.13;5033369;28;20034;-47
2022/06/13 21:07:28;;;;;;;3.30;1.52;;;19.10;44.20;;;15.78;53.68;95964.28;5047851;28;20435;-45
2022/06/13 21:10:08;;;;;;;2.67;1.52;;;19.10;44.30;;;15.72;54.29;95955.50;5033053;28;20072;-48
2022/06/13 21:13:11;;;;;;;4.05;1.67;;;19.10;44.30;;;15.69;54.49;95956.06;5046990;28;20445;-48
2022/06/13 21:15:58;;;;;;;2.50;1.55;;;19.10;44.40;;;15.64;55.07;95950.75;5025915;28;20044;-47
2022/06/13 21:18:24;;;;;;;2.88;1.50;;;19.00;44.60;;;15.64;54.61;95956.91;5062517;22;20057;-52
2022/06/13 21:20:56;;;;;;;2.58;1.15;;;19.00;44.70;;;15.66;55.40;95960.09;5044949;28;20040;-51
2022/06/13 21:23:25;;;;;;;1.35;1.25;;;19.00;45.00;;;15.54;55.09;95953.53;5053633;28;20025;-53
2022/06/13 21:25:55;;;;;;;4.65;1.83;;;19.00;45.10;;;15.56;54.75;95962.13;5052299;28;20140;-56
2022/06/13 21:28:23;;;;;;;2.60;1.30;;;18.90;45.60;;;15.44;55.31;95949.88;5031842;28;20033;-57
2022/06/13 21:30:49;;;;;;;8.05;2.00;;;18.90;45.00;;;15.43;55.48;95956.34;5033656;28;20021;-54
2022/06/13 21:33:16;;;;;;;5.38;2.08;;;18.80;45.10;;;15.41;55.01;95958.50;5016225;28;20033;-55
2022/06/13 21:35:46;;;;;;;3.20;1.60;;;18.80;45.20;;;15.43;54.74;95959.03;5033738;28;20017;-55
2022/06/13 21:38:13;;;;;;;3.50;1.35;;;18.80;45.20;;;15.41;54.47;95960.41;5015664;28;20025;-56
2022/06/13 21:40:45;;;;;;;6.82;1.85;;;18.80;45.20;;;15.41;54.98;95955.81;5013938;28;20032;-56
2022/06/13 21:43:15;;;;;;;3.08;1.45;;;18.80;45.30;;;15.39;55.07;95957.22;5014648;28;20332;-56
2022/06/13 21:45:50;;;;;;;3.60;1.67;;;18.70;45.30;;;15.37;54.48;95957.47;5007045;28;20463;-57
2022/06/13 21:48:18;;;;;;;2.25;1.30;;;18.70;45.30;;;15.40;54.33;95964.16;5014717;28;20503;-52
2022/06/13 21:50:47;;;;;;;4.32;1.77;;;18.70;45.30;;;15.46;53.94;95966.50;5013589;28;20048;-54
2022/06/13 21:53:13;;;;;;;5.57;1.63;;;18.70;45.20;;;15.47;54.64;95964.63;5014730;28;20083;-57
2022/06/13 21:55:41;;;;;;;2.22;1.50;;;18.70;45.40;;;15.42;54.77;95954.75;5031151;28;20656;-52
2022/06/13 21:58:09;;;;;;;2.42;1.45;;;18.70;45.40;;;15.45;55.08;95962.25;4994954;28;20026;-56
2022/06/13 22:00:40;;;;;;;5.18;1.60;;;18.70;45.50;;;15.42;54.87;95956.66;5012256;28;20025;-55
2022/06/13 22:03:15;;;;;;;4.20;1.90;;;18.70;45.50;;;15.41;55.56;95963.88;5032219;28;20056;-55
2022/06/13 22:05:42;;;;;;;4.28;1.30;;;18.70;45.80;;;15.34;55.90;95963.41;5014407;28;20431;-55
2022/06/13 22:08:08;;;;;;;1.95;1.50;;;18.70;45.60;;;15.31;55.71;95972.03;5014543;28;20365;-56
2022/06/13 22:10:36;;;;;;;5.05;1.52;;;18.60;45.60;;;15.28;56.40;95962.66;4997605;28;20029;-54
2022/06/13 22:13:06;;;;;;;2.55;1.70;;;18.60;45.70;;;15.28;56.76;95961.88;5014534;28;20029;-55
2022/06/13 22:15:32;;;;;;;2.83;1.70;;;18.60;45.90;;;15.17;57.28;95966.56;5013650;28;20036;-54
2022/06/13 22:17:58;;;;;;;4.90;1.60;;;18.50;45.90;;;15.04;56.94;95969.91;5031641;28;20116;-54
2022/06/13 22:20:24;;;;;;;2.78;1.48;;;18.40;46.00;;;14.87;58.36;95964.16;5031340;28;20034;-54
2022/06/13 22:22:56;;;;;;;3.17;1.30;;;18.30;46.70;;;14.74;57.66;95965.63;5001185;28;20083;-55
2022/06/13 22:25:25;;;;;;;4.50;1.48;;;18.20;46.20;;;14.60;57.46;95965.44;5014280;28;20036;-52
2022/06/13 22:27:52;;;;;;;3.97;1.63;;;18.00;46.10;;;14.47;57.87;95966.88;5014455;28;20053;-54
2022/06/13 22:30:18;;;;;;;5.90;1.67;;;18.00;46.20;;;14.36;59.54;95976.06;5013813;28;20064;-55
2022/06/13 22:32:44;;;;;;;1.98;1.35;;;17.80;46.40;;;14.21;60.37;95974.28;5031648;28;20033;-55
2022/06/13 22:35:12;;;;;;;2.72;1.70;;;17.70;46.70;;;14.12;60.34;95965.22;5014071;28;20036;-56
2022/06/13 22:37:39;;;;;;;4.20;1.70;;;17.60;46.90;;;14.03;61.19;95959.66;5014146;28;20021;-55
2022/06/13 22:40:07;;;;;;;4.25;1.77;;;17.50;47.10;;;13.98;60.65;95973.09;5030180;28;20503;-51
2022/06/13 22:42:35;;;;;;;4.15;1.65;;;17.40;47.40;;;13.85;63.63;95979.03;5024110;28;20065;-55
2022/06/13 22:45:03;;;;;;;4.00;1.65;;;17.30;47.90;;;13.72;63.79;95974.28;5031588;28;20029;-55
2022/06/13 22:50:16;;;;;;;5.35;1.60;;;17.10;48.40;;;13.45;65.38;95975.47;5010399;28;20037;-55
2022/06/13 22:52:42;;;;;;;4.40;1.42;;;16.90;48.60;;;13.35;65.13;95970.13;5021461;28;20065;-53
2022/06/13 22:55:15;;;;;;;3.83;1.70;;;16.90;49.00;;;13.32;64.41;95979.53;5031343;28;20392;-50
2022/06/13 22:57:44;;;;;;;4.45;1.73;;;16.80;49.20;;;13.27;66.02;95978.72;4997657;28;20025;-54
